sensor_id;sensor_type;location;lat;lon;timestamp;temperature;humidity
11944;DHT22;6031;50.220;10.122;2022-12-18T00:01:18;-12.30;99.90
11944;DHT22;6031;50.220;10.122;2022-12-18T00:03:44;-12.40;99.90
11944;DHT22;6031;50.220;10.122;2022-12-18T00:06:10;-12.30;99.90
11944;DHT22;6031;50.220;10.122;2022-12-18T00:08:37;-12.20;99.90
11944;DHT22;6031;50.220;10.122;2022-12-18T00:11:07;-12.10;99.90
11944;DHT22;6031;50.220;10.122;2022-12-18T00:13:32;-12.20;99.90
11944;DHT22;6031;50.220;10.122;2022-12-18T00:16:07;-12.20;99.90
11944;DHT22;6031;50.220;10.122;2022-12-18T00:18:34;-12.10;99.90
11944;DHT22;6031;50.220;10.122;2022-12-18T00:21:01;-12.00;99.90
11944;DHT22;6031;50.220;10.122;2022-12-18T00:23:28;-12.10;99.90
11944;DHT22;6031;50.220;10.122;2022-12-18T00:25:54;-12.20;99.90
11944;DHT22;6031;50.220;10.122;2022-12-18T00:28:20;-12.30;99.90
11944;DHT22;6031;50.220;10.122;2022-12-18T00:30:45;-12.30;99.90
11944;DHT22;6031;50.220;10.122;2022-12-18T00:33:11;-12.40;99.90
11944;DHT22;6031;50.220;10.122;2022-12-18T00:35:36;-12.40;99.90
11944;DHT22;6031;50.220;10.122;2022-12-18T00:38:02;-12.40;99.90
11944;DHT22;6031;50.220;10.122;2022-12-18T00:40:27;-12.40;99.90
11944;DHT22;6031;50.220;10.122;2022-12-18T00:42:53;-12.40;99.90
11944;DHT22;6031;50.220;10.122;2022-12-18T00:45:26;-12.50;99.90
11944;DHT22;6031;50.220;10.122;2022-12-18T00:47:52;-12.50;99.90
11944;DHT22;6031;50.220;10.122;2022-12-18T00:50:18;-12.60;99.90
11944;DHT22;6031;50.220;10.122;2022-12-18T00:52:44;-12.40;99.90
11944;DHT22;6031;50.220;10.122;2022-12-18T00:55:10;-12.40;99.90
11944;DHT22;6031;50.220;10.122;2022-12-18T00:57:36;-12.30;99.90
11944;DHT22;6031;50.220;10.122;2022-12-18T01:00:04;-12.20;99.90
11944;DHT22;6031;50.220;10.122;2022-12-18T01:02:29;-12.20;99.90
11944;DHT22;6031;50.220;10.122;2022-12-18T01:04:55;-12.00;99.90
11944;DHT22;6031;50.220;10.122;2022-12-18T01:07:21;-11.90;99.90
11944;DHT22;6031;50.220;10.122;2022-12-18T01:09:46;-12.00;99.90
11944;DHT22;6031;50.220;10.122;2022-12-18T01:12:12;-12.00;99.90
11944;DHT22;6031;50.220;10.122;2022-12-18T01:14:37;-12.10;99.90
11944;DHT22;6031;50.220;10.122;2022-12-18T01:17:03;-12.20;99.90
11944;DHT22;6031;50.220;10.122;2022-12-18T01:19:29;-12.40;99.90
11944;DHT22;6031;50.220;10.122;2022-12-18T01:21:55;-12.50;99.90
11944;DHT22;6031;50.220;10.122;2022-12-18T01:24:20;-12.50;99.90
11944;DHT22;6031;50.220;10.122;2022-12-18T01:26:46;-12.40;99.90
11944;DHT22;6031;50.220;10.122;2022-12-18T01:29:11;-12.10;99.90
11944;DHT22;6031;50.220;10.122;2022-12-18T01:31:37;-12.00;99.90
11944;DHT22;6031;50.220;10.122;2022-12-18T01:34:04;-12.20;99.90
11944;DHT22;6031;50.220;10.122;2022-12-18T01:36:32;-12.30;99.90
11944;DHT22;6031;50.220;10.122;2022-12-18T01:39:06;-12.30;99.90
11944;DHT22;6031;50.220;10.122;2022-12-18T01:41:33;-12.30;99.90
11944;DHT22;6031;50.220;10.122;2022-12-18T01:47:28;-12.30;99.90
11944;DHT22;6031;50.220;10.122;2022-12-18T01:49:57;-12.30;99.90
11944;DHT22;6031;50.220;10.122;2022-12-18T01:52:28;-12.10;99.90
11944;DHT22;6031;50.220;10.122;2022-12-18T01:54:54;-12.10;99.90
11944;DHT22;6031;50.220;10.122;2022-12-18T01:57:21;-12.20;99.90
11944;DHT22;6031;50.220;10.122;2022-12-18T01:59:50;-12.40;99.90
11944;DHT22;6031;50.220;10.122;2022-12-18T02:02:18;-12.50;99.90
11944;DHT22;6031;50.220;10.122;2022-12-18T02:04:44;-12.50;99.90
11944;DHT22;6031;50.220;10.122;2022-12-18T02:07:17;-12.50;99.90
11944;DHT22;6031;50.220;10.122;2022-12-18T02:09:59;-12.40;99.90
11944;DHT22;6031;50.220;10.122;2022-12-18T02:12:45;-12.30;99.90
11944;DHT22;6031;50.220;10.122;2022-12-18T02:15:21;-12.40;99.90
11944;DHT22;6031;50.220;10.122;2022-12-18T02:20:24;-12.50;99.90
11944;DHT22;6031;50.220;10.122;2022-12-18T02:26:15;-12.40;99.90
11944;DHT22;6031;50.220;10.122;2022-12-18T02:28:55;-12.40;99.90
11944;DHT22;6031;50.220;10.122;2022-12-18T02:31:25;-12.40;99.90
11944;DHT22;6031;50.220;10.122;2022-12-18T02:33:53;-12.40;99.90
11944;DHT22;6031;50.220;10.122;2022-12-18T02:36:21;-12.30;99.90
11944;DHT22;6031;50.220;10.122;2022-12-18T02:38:47;-12.40;99.90
11944;DHT22;6031;50.220;10.122;2022-12-18T02:41:14;-12.60;99.90
11944;DHT22;6031;50.220;10.122;2022-12-18T02:43:47;-12.60;99.90
11944;DHT22;6031;50.220;10.122;2022-12-18T02:46:29;-12.70;99.90
11944;DHT22;6031;50.220;10.122;2022-12-18T02:49:11;-12.40;99.90
11944;DHT22;6031;50.220;10.122;2022-12-18T02:51:57;-12.40;99.90
11944;DHT22;6031;50.220;10.122;2022-12-18T02:57:34;-12.80;99.90
11944;DHT22;6031;50.220;10.122;2022-12-18T03:00:10;-12.90;99.90
11944;DHT22;6031;50.220;10.122;2022-12-18T03:02:51;-12.90;99.90
11944;DHT22;6031;50.220;10.122;2022-12-18T03:05:33;-12.80;99.90
11944;DHT22;6031;50.220;10.122;2022-12-18T03:08:10;-12.70;99.90
11944;DHT22;6031;50.220;10.122;2022-12-18T03:10:42;-12.80;99.90
11944;DHT22;6031;50.220;10.122;2022-12-18T03:13:17;-12.90;99.90
11944;DHT22;6031;50.220;10.122;2022-12-18T03:15:48;-13.00;99.90
11944;DHT22;6031;50.220;10.122;2022-12-18T03:18:35;-13.00;99.90
11944;DHT22;6031;50.220;10.122;2022-12-18T03:21:05;-12.90;99.90
11944;DHT22;6031;50.220;10.122;2022-12-18T03:23:35;-12.70;99.90
11944;DHT22;6031;50.220;10.122;2022-12-18T03:26:05;-12.70;99.90
11944;DHT22;6031;50.220;10.122;2022-12-18T03:28:36;-12.90;99.90
11944;DHT22;6031;50.220;10.122;2022-12-18T03:31:04;-13.00;99.90
11944;DHT22;6031;50.220;10.122;2022-12-18T03:36:17;-12.90;99.90
11944;DHT22;6031;50.220;10.122;2022-12-18T03:38:43;-13.00;99.90
11944;DHT22;6031;50.220;10.122;2022-12-18T03:43:49;-13.00;99.90
11944;DHT22;6031;50.220;10.122;2022-12-18T03:46:27;-13.00;99.90
11944;DHT22;6031;50.220;10.122;2022-12-18T03:51:54;-12.90;99.90
11944;DHT22;6031;50.220;10.122;2022-12-18T03:54:23;-13.00;99.90
11944;DHT22;6031;50.220;10.122;2022-12-18T03:56:57;-13.00;99.90
11944;DHT22;6031;50.220;10.122;2022-12-18T03:59:24;-12.80;99.90
11944;DHT22;6031;50.220;10.122;2022-12-18T04:01:52;-12.90;99.90
11944;DHT22;6031;50.220;10.122;2022-12-18T04:04:19;-13.00;99.90
11944;DHT22;6031;50.220;10.122;2022-12-18T04:06:47;-13.10;99.90
11944;DHT22;6031;50.220;10.122;2022-12-18T04:09:13;-12.90;99.90
11944;DHT22;6031;50.220;10.122;2022-12-18T04:11:41;-12.80;99.90
11944;DHT22;6031;50.220;10.122;2022-12-18T04:14:07;-12.80;99.90
11944;DHT22;6031;50.220;10.122;2022-12-18T04:16:33;-13.00;99.90
11944;DHT22;6031;50.220;10.122;2022-12-18T04:18:58;-13.20;99.90
11944;DHT22;6031;50.220;10.122;2022-12-18T04:21:24;-13.20;99.90
11944;DHT22;6031;50.220;10.122;2022-12-18T04:23:49;-12.90;99.90
11944;DHT22;6031;50.220;10.122;2022-12-18T04:26:15;-12.80;99.90
11944;DHT22;6031;50.220;10.122;2022-12-18T04:28:40;-13.10;99.90
11944;DHT22;6031;50.220;10.122;2022-12-18T04:31:06;-13.20;99.90
11944;DHT22;6031;50.220;10.122;2022-12-18T04:33:32;-13.30;99.90
11944;DHT22;6031;50.220;10.122;2022-12-18T04:35:57;-13.40;99.90
11944;DHT22;6031;50.220;10.122;2022-12-18T04:38:23;-13.50;99.90
11944;DHT22;6031;50.220;10.122;2022-12-18T04:40:48;-13.60;99.90
11944;DHT22;6031;50.220;10.122;2022-12-18T04:43:14;-13.60;99.90
11944;DHT22;6031;50.220;10.122;2022-12-18T04:45:40;-13.50;99.90
11944;DHT22;6031;50.220;10.122;2022-12-18T04:48:05;-13.50;99.90
11944;DHT22;6031;50.220;10.122;2022-12-18T04:50:31;-13.40;99.90
11944;DHT22;6031;50.220;10.122;2022-12-18T04:52:56;-13.30;99.90
11944;DHT22;6031;50.220;10.122;2022-12-18T04:55:25;-13.20;99.90
11944;DHT22;6031;50.220;10.122;2022-12-18T04:57:51;-13.20;99.90
11944;DHT22;6031;50.220;10.122;2022-12-18T05:00:17;-13.10;99.90
11944;DHT22;6031;50.220;10.122;2022-12-18T05:02:42;-13.20;99.90
11944;DHT22;6031;50.220;10.122;2022-12-18T05:05:08;-13.20;99.90
11944;DHT22;6031;50.220;10.122;2022-12-18T05:07:34;-13.20;99.90
11944;DHT22;6031;50.220;10.122;2022-12-18T05:09:59;-13.10;99.90
11944;DHT22;6031;50.220;10.122;2022-12-18T05:12:25;-12.90;99.90
11944;DHT22;6031;50.220;10.122;2022-12-18T05:14:51;-12.90;99.90
11944;DHT22;6031;50.220;10.122;2022-12-18T05:17:16;-13.00;99.90
11944;DHT22;6031;50.220;10.122;2022-12-18T05:19:42;-13.30;99.90
11944;DHT22;6031;50.220;10.122;2022-12-18T05:22:08;-13.30;99.90
11944;DHT22;6031;50.220;10.122;2022-12-18T05:24:34;-13.30;99.90
11944;DHT22;6031;50.220;10.122;2022-12-18T05:26:59;-13.20;99.90
11944;DHT22;6031;50.220;10.122;2022-12-18T05:29:25;-13.10;99.90
11944;DHT22;6031;50.220;10.122;2022-12-18T05:31:50;-13.20;99.90
11944;DHT22;6031;50.220;10.122;2022-12-18T05:34:16;-13.40;99.90
11944;DHT22;6031;50.220;10.122;2022-12-18T05:36:42;-13.50;99.90
11944;DHT22;6031;50.220;10.122;2022-12-18T05:39:07;-13.60;99.90
11944;DHT22;6031;50.220;10.122;2022-12-18T05:41:33;-13.40;99.90
11944;DHT22;6031;50.220;10.122;2022-12-18T05:43:58;-13.50;99.90
11944;DHT22;6031;50.220;10.122;2022-12-18T05:46:24;-13.50;99.90
11944;DHT22;6031;50.220;10.122;2022-12-18T05:48:50;-13.40;99.90
11944;DHT22;6031;50.220;10.122;2022-12-18T05:51:18;-13.40;99.90
11944;DHT22;6031;50.220;10.122;2022-12-18T05:53:44;-13.40;99.90
11944;DHT22;6031;50.220;10.122;2022-12-18T05:56:13;-13.40;99.90
11944;DHT22;6031;50.220;10.122;2022-12-18T05:58:40;-13.30;99.90
11944;DHT22;6031;50.220;10.122;2022-12-18T06:01:17;-13.30;99.90
11944;DHT22;6031;50.220;10.122;2022-12-18T06:03:43;-13.30;99.90
11944;DHT22;6031;50.220;10.122;2022-12-18T06:06:26;-13.30;99.90
11944;DHT22;6031;50.220;10.122;2022-12-18T06:08:52;-13.40;99.90
11944;DHT22;6031;50.220;10.122;2022-12-18T06:11:20;-13.50;99.90
11944;DHT22;6031;50.220;10.122;2022-12-18T06:13:49;-13.40;99.90
11944;DHT22;6031;50.220;10.122;2022-12-18T06:16:15;-13.40;99.90
11944;DHT22;6031;50.220;10.122;2022-12-18T06:18:40;-13.40;99.90
11944;DHT22;6031;50.220;10.122;2022-12-18T06:21:06;-13.30;99.90
11944;DHT22;6031;50.220;10.122;2022-12-18T06:23:31;-13.40;99.90
11944;DHT22;6031;50.220;10.122;2022-12-18T06:25:57;-13.40;99.90
11944;DHT22;6031;50.220;10.122;2022-12-18T06:28:23;-13.40;99.90
11944;DHT22;6031;50.220;10.122;2022-12-18T06:30:49;-13.30;99.90
11944;DHT22;6031;50.220;10.122;2022-12-18T06:33:15;-13.50;99.90
11944;DHT22;6031;50.220;10.122;2022-12-18T06:35:41;-13.40;99.90
11944;DHT22;6031;50.220;10.122;2022-12-18T06:38:07;-13.40;99.90
11944;DHT22;6031;50.220;10.122;2022-12-18T06:40:33;-13.30;99.90
11944;DHT22;6031;50.220;10.122;2022-12-18T06:42:58;-13.50;99.90
11944;DHT22;6031;50.220;10.122;2022-12-18T06:45:24;-13.70;99.90
11944;DHT22;6031;50.220;10.122;2022-12-18T06:47:50;-13.80;99.90
11944;DHT22;6031;50.220;10.122;2022-12-18T06:50:15;-13.80;99.90
11944;DHT22;6031;50.220;10.122;2022-12-18T06:52:41;-13.80;99.90
11944;DHT22;6031;50.220;10.122;2022-12-18T06:55:10;-13.80;99.90
11944;DHT22;6031;50.220;10.122;2022-12-18T06:57:35;-13.70;99.90
11944;DHT22;6031;50.220;10.122;2022-12-18T07:00:02;-13.60;99.90
11944;DHT22;6031;50.220;10.122;2022-12-18T07:02:28;-13.50;99.90
11944;DHT22;6031;50.220;10.122;2022-12-18T07:04:53;-13.50;99.90
11944;DHT22;6031;50.220;10.122;2022-12-18T07:07:19;-13.50;99.90
11944;DHT22;6031;50.220;10.122;2022-12-18T07:09:44;-13.50;99.90
11944;DHT22;6031;50.220;10.122;2022-12-18T07:12:10;-13.60;99.90
11944;DHT22;6031;50.220;10.122;2022-12-18T07:14:35;-13.40;99.90
11944;DHT22;6031;50.220;10.122;2022-12-18T07:17:01;-13.40;99.90
11944;DHT22;6031;50.220;10.122;2022-12-18T07:19:27;-13.40;99.90
11944;DHT22;6031;50.220;10.122;2022-12-18T07:21:52;-13.30;99.90
11944;DHT22;6031;50.220;10.122;2022-12-18T07:24:18;-13.40;99.90
11944;DHT22;6031;50.220;10.122;2022-12-18T07:26:46;-13.30;99.90
11944;DHT22;6031;50.220;10.122;2022-12-18T07:29:11;-13.30;99.90
11944;DHT22;6031;50.220;10.122;2022-12-18T07:31:37;-13.20;99.90
11944;DHT22;6031;50.220;10.122;2022-12-18T07:34:02;-13.30;99.90
11944;DHT22;6031;50.220;10.122;2022-12-18T07:36:28;-13.30;99.90
11944;DHT22;6031;50.220;10.122;2022-12-18T07:38:53;-13.20;99.90
11944;DHT22;6031;50.220;10.122;2022-12-18T07:41:19;-13.30;99.90
11944;DHT22;6031;50.220;10.122;2022-12-18T07:43:45;-13.20;99.90
11944;DHT22;6031;50.220;10.122;2022-12-18T07:46:12;-13.10;99.90
11944;DHT22;6031;50.220;10.122;2022-12-18T07:48:40;-13.10;99.90
11944;DHT22;6031;50.220;10.122;2022-12-18T07:51:06;-13.00;99.90
11944;DHT22;6031;50.220;10.122;2022-12-18T07:53:33;-12.90;99.90
11944;DHT22;6031;50.220;10.122;2022-12-18T07:56:01;-12.70;99.90
11944;DHT22;6031;50.220;10.122;2022-12-18T07:58:28;-12.70;99.90
11944;DHT22;6031;50.220;10.122;2022-12-18T08:00:54;-12.70;99.90
11944;DHT22;6031;50.220;10.122;2022-12-18T08:03:20;-12.70;99.90
11944;DHT22;6031;50.220;10.122;2022-12-18T08:05:45;-12.70;99.90
11944;DHT22;6031;50.220;10.122;2022-12-18T08:08:11;-12.70;99.90
11944;DHT22;6031;50.220;10.122;2022-12-18T08:10:37;-12.70;99.90
11944;DHT22;6031;50.220;10.122;2022-12-18T08:13:04;-12.60;99.90
11944;DHT22;6031;50.220;10.122;2022-12-18T08:15:29;-12.50;99.90
11944;DHT22;6031;50.220;10.122;2022-12-18T08:17:58;-12.30;99.90
11944;DHT22;6031;50.220;10.122;2022-12-18T08:20:23;-12.20;99.90
11944;DHT22;6031;50.220;10.122;2022-12-18T08:22:49;-12.20;99.90
11944;DHT22;6031;50.220;10.122;2022-12-18T08:25:15;-12.10;99.90
11944;DHT22;6031;50.220;10.122;2022-12-18T08:27:40;-11.90;99.90
11944;DHT22;6031;50.220;10.122;2022-12-18T08:30:06;-11.70;99.90
11944;DHT22;6031;50.220;10.122;2022-12-18T08:32:32;-11.50;99.90
11944;DHT22;6031;50.220;10.122;2022-12-18T08:34:58;-11.20;99.90
11944;DHT22;6031;50.220;10.122;2022-12-18T08:37:24;-11.00;99.90
11944;DHT22;6031;50.220;10.122;2022-12-18T08:39:50;-10.80;99.90
11944;DHT22;6031;50.220;10.122;2022-12-18T08:42:15;-10.60;99.90
11944;DHT22;6031;50.220;10.122;2022-12-18T08:44:59;-10.40;99.90
11944;DHT22;6031;50.220;10.122;2022-12-18T08:47:25;-10.10;99.90
11944;DHT22;6031;50.220;10.122;2022-12-18T08:49:51;-9.80;99.90
11944;DHT22;6031;50.220;10.122;2022-12-18T08:52:16;-9.60;99.90
11944;DHT22;6031;50.220;10.122;2022-12-18T08:54:42;-9.50;99.90
11944;DHT22;6031;50.220;10.122;2022-12-18T08:57:08;-9.40;99.90
11944;DHT22;6031;50.220;10.122;2022-12-18T08:59:33;-9.30;99.90
11944;DHT22;6031;50.220;10.122;2022-12-18T09:01:59;-9.20;99.90
11944;DHT22;6031;50.220;10.122;2022-12-18T09:04:24;-9.10;99.90
11944;DHT22;6031;50.220;10.122;2022-12-18T09:06:50;-9.10;99.90
11944;DHT22;6031;50.220;10.122;2022-12-18T09:09:15;-9.00;99.90
11944;DHT22;6031;50.220;10.122;2022-12-18T09:11:41;-9.00;99.90
11944;DHT22;6031;50.220;10.122;2022-12-18T09:14:06;-9.00;99.90
11944;DHT22;6031;50.220;10.122;2022-12-18T09:16:32;-9.00;99.90
11944;DHT22;6031;50.220;10.122;2022-12-18T09:19:02;-8.80;99.90
11944;DHT22;6031;50.220;10.122;2022-12-18T09:21:31;-8.70;99.90
11944;DHT22;6031;50.220;10.122;2022-12-18T09:23:57;-8.50;99.90
11944;DHT22;6031;50.220;10.122;2022-12-18T09:26:25;-8.50;99.90
11944;DHT22;6031;50.220;10.122;2022-12-18T09:28:51;-8.40;99.90
11944;DHT22;6031;50.220;10.122;2022-12-18T09:31:20;-8.50;99.90
11944;DHT22;6031;50.220;10.122;2022-12-18T09:33:46;-8.50;99.90
11944;DHT22;6031;50.220;10.122;2022-12-18T09:36:13;-8.40;99.90
11944;DHT22;6031;50.220;10.122;2022-12-18T09:38:40;-8.40;99.90
11944;DHT22;6031;50.220;10.122;2022-12-18T09:44:54;-8.30;99.90
11944;DHT22;6031;50.220;10.122;2022-12-18T09:47:19;-8.20;99.90
11944;DHT22;6031;50.220;10.122;2022-12-18T09:49:47;-8.10;99.90
11944;DHT22;6031;50.220;10.122;2022-12-18T09:52:36;-8.00;99.90
11944;DHT22;6031;50.220;10.122;2022-12-18T09:55:21;-8.00;99.90
11944;DHT22;6031;50.220;10.122;2022-12-18T09:58:02;-7.80;99.90
11944;DHT22;6031;50.220;10.122;2022-12-18T10:00:30;-7.70;99.90
11944;DHT22;6031;50.220;10.122;2022-12-18T10:03:01;-7.60;99.90
11944;DHT22;6031;50.220;10.122;2022-12-18T10:09:00;-7.50;99.90
11944;DHT22;6031;50.220;10.122;2022-12-18T10:11:43;-7.60;99.90
11944;DHT22;6031;50.220;10.122;2022-12-18T10:14:23;-7.60;99.90
11944;DHT22;6031;50.220;10.122;2022-12-18T10:19:53;-7.60;99.90
11944;DHT22;6031;50.220;10.122;2022-12-18T10:22:42;-7.50;99.90
11944;DHT22;6031;50.220;10.122;2022-12-18T10:25:22;-7.50;99.90
11944;DHT22;6031;50.220;10.122;2022-12-18T10:27:53;-7.30;99.90
11944;DHT22;6031;50.220;10.122;2022-12-18T10:30:21;-7.20;99.90
11944;DHT22;6031;50.220;10.122;2022-12-18T10:32:47;-7.20;99.90
11944;DHT22;6031;50.220;10.122;2022-12-18T10:35:40;-7.10;99.90
11944;DHT22;6031;50.220;10.122;2022-12-18T10:38:21;-7.00;99.90
11944;DHT22;6031;50.220;10.122;2022-12-18T10:40:59;-7.10;99.90
11944;DHT22;6031;50.220;10.122;2022-12-18T10:43:35;-7.00;99.90
11944;DHT22;6031;50.220;10.122;2022-12-18T10:48:27;-6.80;99.90
11944;DHT22;6031;50.220;10.122;2022-12-18T10:50:53;-6.90;99.90
11944;DHT22;6031;50.220;10.122;2022-12-18T10:53:26;-6.80;99.90
11944;DHT22;6031;50.220;10.122;2022-12-18T10:55:53;-6.60;99.90
11944;DHT22;6031;50.220;10.122;2022-12-18T10:58:24;-6.50;99.90
11944;DHT22;6031;50.220;10.122;2022-12-18T11:01:10;-6.40;99.90
11944;DHT22;6031;50.220;10.122;2022-12-18T11:06:13;-6.10;99.90
11944;DHT22;6031;50.220;10.122;2022-12-18T11:08:41;-6.00;99.90
11944;DHT22;6031;50.220;10.122;2022-12-18T11:11:16;-6.10;99.90
11944;DHT22;6031;50.220;10.122;2022-12-18T11:13:54;-6.20;99.90
11944;DHT22;6031;50.220;10.122;2022-12-18T11:16:21;-6.10;99.90
11944;DHT22;6031;50.220;10.122;2022-12-18T11:18:46;-6.10;99.90
11944;DHT22;6031;50.220;10.122;2022-12-18T11:24:36;-6.20;99.90
11944;DHT22;6031;50.220;10.122;2022-12-18T11:27:04;-6.20;99.90
11944;DHT22;6031;50.220;10.122;2022-12-18T11:29:35;-6.10;99.90
11944;DHT22;6031;50.220;10.122;2022-12-18T11:34:58;-6.00;99.90
11944;DHT22;6031;50.220;10.122;2022-12-18T11:37:24;-6.00;99.90
11944;DHT22;6031;50.220;10.122;2022-12-18T11:40:15;-6.10;99.90
11944;DHT22;6031;50.220;10.122;2022-12-18T11:42:50;-6.10;99.90
11944;DHT22;6031;50.220;10.122;2022-12-18T11:45:34;-6.00;99.90
11944;DHT22;6031;50.220;10.122;2022-12-18T11:48:25;-5.90;99.90
11944;DHT22;6031;50.220;10.122;2022-12-18T11:50:56;-5.90;99.90
11944;DHT22;6031;50.220;10.122;2022-12-18T11:53:24;-5.90;99.90
11944;DHT22;6031;50.220;10.122;2022-12-18T11:58:49;-5.60;99.90
11944;DHT22;6031;50.220;10.122;2022-12-18T12:04:40;-5.60;99.90
11944;DHT22;6031;50.220;10.122;2022-12-18T12:07:22;-5.50;99.90
11944;DHT22;6031;50.220;10.122;2022-12-18T12:15:25;-5.60;99.90
11944;DHT22;6031;50.220;10.122;2022-12-18T12:21:21;-5.20;99.90
11944;DHT22;6031;50.220;10.122;2022-12-18T12:32:03;-5.10;99.90
11944;DHT22;6031;50.220;10.122;2022-12-18T12:34:47;-5.20;99.90
11944;DHT22;6031;50.220;10.122;2022-12-18T12:40:14;-5.30;99.90
11944;DHT22;6031;50.220;10.122;2022-12-18T12:42:46;-5.30;99.90
11944;DHT22;6031;50.220;10.122;2022-12-18T12:46:03;-5.20;99.90
11944;DHT22;6031;50.220;10.122;2022-12-18T12:53:57;-5.10;99.90
11944;DHT22;6031;50.220;10.122;2022-12-18T12:56:29;-5.10;99.90
11944;DHT22;6031;50.220;10.122;2022-12-18T12:59:13;-5.00;99.90
11944;DHT22;6031;50.220;10.122;2022-12-18T13:01:54;-5.10;99.90
11944;DHT22;6031;50.220;10.122;2022-12-18T13:07:17;-5.10;99.90
11944;DHT22;6031;50.220;10.122;2022-12-18T13:18:18;-4.90;99.90
11944;DHT22;6031;50.220;10.122;2022-12-18T13:26:42;-4.70;99.90
11944;DHT22;6031;50.220;10.122;2022-12-18T13:36:45;-4.80;99.90
11944;DHT22;6031;50.220;10.122;2022-12-18T13:41:50;-4.70;99.90
11944;DHT22;6031;50.220;10.122;2022-12-18T13:44:28;-4.80;99.90
11944;DHT22;6031;50.220;10.122;2022-12-18T13:46:56;-4.90;99.90
11944;DHT22;6031;50.220;10.122;2022-12-18T13:49:36;-4.90;99.90
11944;DHT22;6031;50.220;10.122;2022-12-18T13:52:14;-4.80;99.90
11944;DHT22;6031;50.220;10.122;2022-12-18T13:54:42;-4.90;99.90
11944;DHT22;6031;50.220;10.122;2022-12-18T13:57:46;-5.00;99.90
11944;DHT22;6031;50.220;10.122;2022-12-18T14:00:29;-4.90;99.90
11944;DHT22;6031;50.220;10.122;2022-12-18T14:02:55;-4.90;99.90
11944;DHT22;6031;50.220;10.122;2022-12-18T14:05:29;-5.00;99.90
11944;DHT22;6031;50.220;10.122;2022-12-18T14:08:03;-5.10;99.90
11944;DHT22;6031;50.220;10.122;2022-12-18T14:10:30;-5.10;99.90
11944;DHT22;6031;50.220;10.122;2022-12-18T14:13:06;-5.10;99.90
11944;DHT22;6031;50.220;10.122;2022-12-18T14:15:43;-5.10;99.90
11944;DHT22;6031;50.220;10.122;2022-12-18T14:18:38;-5.20;99.90
11944;DHT22;6031;50.220;10.122;2022-12-18T14:21:04;-5.30;99.90
11944;DHT22;6031;50.220;10.122;2022-12-18T14:23:36;-5.40;99.90
11944;DHT22;6031;50.220;10.122;2022-12-18T14:26:19;-5.40;99.90
11944;DHT22;6031;50.220;10.122;2022-12-18T14:28:45;-5.50;99.90
11944;DHT22;6031;50.220;10.122;2022-12-18T14:31:19;-5.60;99.90
11944;DHT22;6031;50.220;10.122;2022-12-18T14:33:44;-5.60;99.90
11944;DHT22;6031;50.220;10.122;2022-12-18T14:36:19;-5.70;99.90
11944;DHT22;6031;50.220;10.122;2022-12-18T14:38:53;-5.80;99.90
11944;DHT22;6031;50.220;10.122;2022-12-18T14:41:20;-5.90;99.90
11944;DHT22;6031;50.220;10.122;2022-12-18T14:43:51;-5.90;99.90
11944;DHT22;6031;50.220;10.122;2022-12-18T14:46:35;-6.00;99.90
11944;DHT22;6031;50.220;10.122;2022-12-18T14:51:33;-6.10;99.90
11944;DHT22;6031;50.220;10.122;2022-12-18T14:54:02;-6.20;99.90
11944;DHT22;6031;50.220;10.122;2022-12-18T14:58:57;-6.30;99.90
11944;DHT22;6031;50.220;10.122;2022-12-18T15:02:09;-6.30;99.90
11944;DHT22;6031;50.220;10.122;2022-12-18T15:04:32;-6.40;99.90
11944;DHT22;6031;50.220;10.122;2022-12-18T15:07:21;-6.40;99.90
11944;DHT22;6031;50.220;10.122;2022-12-18T15:10:03;-6.50;99.90
11944;DHT22;6031;50.220;10.122;2022-12-18T15:14:59;-6.60;99.90
11944;DHT22;6031;50.220;10.122;2022-12-18T15:17:25;-6.70;99.90
11944;DHT22;6031;50.220;10.122;2022-12-18T15:19:53;-6.70;99.90
11944;DHT22;6031;50.220;10.122;2022-12-18T15:22:29;-6.70;99.90
11944;DHT22;6031;50.220;10.122;2022-12-18T15:24:56;-6.70;99.90
11944;DHT22;6031;50.220;10.122;2022-12-18T15:27:29;-6.80;99.90
11944;DHT22;6031;50.220;10.122;2022-12-18T15:32:36;-6.80;99.90
11944;DHT22;6031;50.220;10.122;2022-12-18T15:35:15;-6.90;99.90
11944;DHT22;6031;50.220;10.122;2022-12-18T15:37:41;-6.80;99.90
11944;DHT22;6031;50.220;10.122;2022-12-18T15:40:11;-6.80;99.90
11944;DHT22;6031;50.220;10.122;2022-12-18T15:42:37;-6.80;99.90
11944;DHT22;6031;50.220;10.122;2022-12-18T15:45:20;-6.90;99.90
11944;DHT22;6031;50.220;10.122;2022-12-18T15:47:46;-6.90;99.90
11944;DHT22;6031;50.220;10.122;2022-12-18T15:50:12;-6.80;99.90
11944;DHT22;6031;50.220;10.122;2022-12-18T15:52:45;-6.80;99.90
11944;DHT22;6031;50.220;10.122;2022-12-18T15:55:13;-6.90;99.90
11944;DHT22;6031;50.220;10.122;2022-12-18T15:57:58;-7.00;99.90
11944;DHT22;6031;50.220;10.122;2022-12-18T16:00:24;-7.10;99.90
11944;DHT22;6031;50.220;10.122;2022-12-18T16:02:49;-7.20;99.90
11944;DHT22;6031;50.220;10.122;2022-12-18T16:05:17;-7.20;99.90
11944;DHT22;6031;50.220;10.122;2022-12-18T16:07:43;-7.20;99.90
11944;DHT22;6031;50.220;10.122;2022-12-18T16:10:09;-7.20;99.90
11944;DHT22;6031;50.220;10.122;2022-12-18T16:12:35;-7.30;99.90
11944;DHT22;6031;50.220;10.122;2022-12-18T16:15:01;-7.40;99.90
11944;DHT22;6031;50.220;10.122;2022-12-18T16:17:27;-7.50;99.90
11944;DHT22;6031;50.220;10.122;2022-12-18T16:19:52;-7.40;99.90
11944;DHT22;6031;50.220;10.122;2022-12-18T16:22:23;-7.30;99.90
11944;DHT22;6031;50.220;10.122;2022-12-18T16:24:51;-7.40;99.90
11944;DHT22;6031;50.220;10.122;2022-12-18T16:27:17;-7.50;99.90
11944;DHT22;6031;50.220;10.122;2022-12-18T16:29:43;-7.60;99.90
11944;DHT22;6031;50.220;10.122;2022-12-18T16:32:12;-7.70;99.90
11944;DHT22;6031;50.220;10.122;2022-12-18T16:34:38;-7.70;99.90
11944;DHT22;6031;50.220;10.122;2022-12-18T16:37:05;-7.70;99.90
11944;DHT22;6031;50.220;10.122;2022-12-18T16:39:32;-7.80;99.90
11944;DHT22;6031;50.220;10.122;2022-12-18T16:41:59;-7.80;99.90
11944;DHT22;6031;50.220;10.122;2022-12-18T16:44:26;-7.70;99.90
11944;DHT22;6031;50.220;10.122;2022-12-18T16:46:52;-7.80;99.90
11944;DHT22;6031;50.220;10.122;2022-12-18T16:49:18;-7.80;99.90
11944;DHT22;6031;50.220;10.122;2022-12-18T16:51:45;-7.90;99.90
11944;DHT22;6031;50.220;10.122;2022-12-18T16:54:12;-7.80;99.90
11944;DHT22;6031;50.220;10.122;2022-12-18T16:56:37;-7.90;99.90
11944;DHT22;6031;50.220;10.122;2022-12-18T16:59:04;-7.80;99.90
11944;DHT22;6031;50.220;10.122;2022-12-18T17:01:31;-7.80;99.90
11944;DHT22;6031;50.220;10.122;2022-12-18T17:04:03;-7.70;99.90
11944;DHT22;6031;50.220;10.122;2022-12-18T17:06:33;-7.60;99.90
11944;DHT22;6031;50.220;10.122;2022-12-18T17:09:01;-7.70;99.90
11944;DHT22;6031;50.220;10.122;2022-12-18T17:11:29;-7.80;99.90
11944;DHT22;6031;50.220;10.122;2022-12-18T17:13:55;-7.70;99.90
11944;DHT22;6031;50.220;10.122;2022-12-18T17:16:22;-7.60;99.90
11944;DHT22;6031;50.220;10.122;2022-12-18T17:18:48;-7.60;99.90
11944;DHT22;6031;50.220;10.122;2022-12-18T17:21:14;-7.40;99.90
11944;DHT22;6031;50.220;10.122;2022-12-18T17:23:41;-7.40;99.90
11944;DHT22;6031;50.220;10.122;2022-12-18T17:26:08;-7.40;99.90
11944;DHT22;6031;50.220;10.122;2022-12-18T17:28:35;-7.30;99.90